Smithfield, NC (27577)

4:07 PM EDT on April 28, 2015 (GMT -0400)
Cleveland School | | Change Station
CLOSE
Current Station
Personal Weather Station
Location: Smithfield, NC
Elevation: 223 ft
Nearby Weather Stations

Elev 223 ft 35.54 °N, 78.44 °W | Updated 41 seconds ago

Clear
Clear
69.3 °F
Feels Like 69.3 °F
N
0.0
Wind Variable Wind from North
Gusts 0.0 mph

Today
High -- | Low -- °F
--% Chance of Precip.
Yesterday
High -- | Low -- °F
Precip. -- in
6:25 AM 7:57 PM
Waxing Gibbous, 76% visible
Pressure 29.90 in
Visibility 10.0 miles
Clouds Clear
Dew Point 41 °F
Humidity 36%
Rainfall 0.00 in
Snow Depth Not available.
UV 7 out of 12
Pollen 9.20 out of 12
Air Quality Not available.
Flu Activity Sporadic
METAR KJNX 281955Z AUTO 36006KT 10SM CLR 20/03 A2990 RMK AO2

More Conditions Fewer Conditions

Pressure 29.90 in
Visibility 10.0 miles
Clouds Clear
Dew Point 41 °F
Humidity 36%
Rainfall 0.00 in
Snow Depth Not available.
UV 7 out of 12
Pollen 9.20 out of 12
Air Quality Not available.
Flu Activity Sporadic
METAR KJNX 281955Z AUTO 36006KT 10SM CLR 20/03 A2990 RMK AO2

More Conditions Fewer Conditions

10-Day Weather Forecast

Almanac

Astronomy

Apr. 28, 2015 Rise Set
Actual Time
Civil Twilight
Nautical Twilight
Astronomical Twilight
Moon
Length of Visible Light
Length of Day
Tomorrow will be .
, % of the Moon is Illuminated

Today's Extremes

State Highs State Lows

Community

WunderPhotos

Upload Photos

1,817,742 photos uploaded!

WunderBlogs® & News

Nearby

Air Quality

  Air Quality AQ Index Pollutant
Not available.

Snow Depth

Station Depth Elevation

Earthquake Activity

City Distance Mag. Time & Date
Minimum magnitude displayed is 2.5.

Coastal Water Temperatures

Place Temperature

Stations

Nearby Weather Stations

Station Location Temp. Windchill Dew Point Humidity Wind Precip. Elev Updated Type